sensor_id;sensor_type;location;lat;lon;timestamp;P1;durP1;ratioP1;P2;durP2;ratioP2
58208;SDS011;44006;52.028;4.696;2022-10-01T00:00:22;16.65;;;11.55;;
58208;SDS011;44006;52.028;4.696;2022-10-01T00:02:48;15.80;;;11.18;;
58208;SDS011;44006;52.028;4.696;2022-10-01T00:05:14;13.73;;;10.10;;
58208;SDS011;44006;52.028;4.696;2022-10-01T00:07:40;13.68;;;10.45;;
58208;SDS011;44006;52.028;4.696;2022-10-01T00:10:06;12.25;;;9.65;;
58208;SDS011;44006;52.028;4.696;2022-10-01T00:12:31;12.68;;;9.13;;
58208;SDS011;44006;52.028;4.696;2022-10-01T00:14:57;12.95;;;9.60;;
58208;SDS011;44006;52.028;4.696;2022-10-01T00:17:22;12.95;;;10.93;;
58208;SDS011;44006;52.028;4.696;2022-10-01T00:19:48;14.10;;;10.50;;
58208;SDS011;44006;52.028;4.696;2022-10-01T00:22:13;13.10;;;9.15;;
58208;SDS011;44006;52.028;4.696;2022-10-01T00:24:39;11.48;;;8.10;;
58208;SDS011;44006;52.028;4.696;2022-10-01T00:27:04;12.63;;;8.85;;
58208;SDS011;44006;52.028;4.696;2022-10-01T00:29:30;12.70;;;8.20;;
58208;SDS011;44006;52.028;4.696;2022-10-01T00:31:56;12.50;;;8.15;;
58208;SDS011;44006;52.028;4.696;2022-10-01T00:34:21;13.13;;;8.75;;
58208;SDS011;44006;52.028;4.696;2022-10-01T00:36:47;11.93;;;8.13;;
58208;SDS011;44006;52.028;4.696;2022-10-01T00:39:13;11.70;;;7.78;;
58208;SDS011;44006;52.028;4.696;2022-10-01T00:41:38;13.85;;;8.32;;
58208;SDS011;44006;52.028;4.696;2022-10-01T00:46:48;14.40;;;9.25;;
58208;SDS011;44006;52.028;4.696;2022-10-01T00:49:14;10.13;;;8.00;;
58208;SDS011;44006;52.028;4.696;2022-10-01T00:51:41;14.57;;;9.40;;
58208;SDS011;44006;52.028;4.696;2022-10-01T00:54:12;12.05;;;8.48;;
58208;SDS011;44006;52.028;4.696;2022-10-01T00:56:38;12.77;;;8.02;;
58208;SDS011;44006;52.028;4.696;2022-10-01T00:59:05;12.85;;;8.48;;
58208;SDS011;44006;52.028;4.696;2022-10-01T01:01:30;11.52;;;8.23;;
58208;SDS011;44006;52.028;4.696;2022-10-01T01:03:56;10.18;;;8.27;;
58208;SDS011;44006;52.028;4.696;2022-10-01T01:06:21;15.45;;;8.13;;
58208;SDS011;44006;52.028;4.696;2022-10-01T01:08:48;10.05;;;8.30;;
58208;SDS011;44006;52.028;4.696;2022-10-01T01:16:16;11.07;;;9.10;;
58208;SDS011;44006;52.028;4.696;2022-10-01T01:18:50;12.55;;;9.02;;
58208;SDS011;44006;52.028;4.696;2022-10-01T01:21:35;15.15;;;8.60;;
58208;SDS011;44006;52.028;4.696;2022-10-01T01:24:14;11.75;;;8.68;;
58208;SDS011;44006;52.028;4.696;2022-10-01T01:29:31;10.93;;;7.80;;
58208;SDS011;44006;52.028;4.696;2022-10-01T01:32:00;11.90;;;8.57;;
58208;SDS011;44006;52.028;4.696;2022-10-01T01:34:27;11.27;;;8.35;;
58208;SDS011;44006;52.028;4.696;2022-10-01T01:36:56;8.30;;;7.10;;
58208;SDS011;44006;52.028;4.696;2022-10-01T01:39:22;8.32;;;7.07;;
58208;SDS011;44006;52.028;4.696;2022-10-01T01:41:50;11.73;;;7.25;;
58208;SDS011;44006;52.028;4.696;2022-10-01T01:44:19;9.35;;;7.65;;
58208;SDS011;44006;52.028;4.696;2022-10-01T01:46:46;13.00;;;7.55;;
58208;SDS011;44006;52.028;4.696;2022-10-01T01:49:15;8.80;;;6.90;;
58208;SDS011;44006;52.028;4.696;2022-10-01T01:51:46;9.27;;;6.93;;
58208;SDS011;44006;52.028;4.696;2022-10-01T01:54:14;8.98;;;7.20;;
58208;SDS011;44006;52.028;4.696;2022-10-01T01:56:40;9.60;;;6.95;;
58208;SDS011;44006;52.028;4.696;2022-10-01T01:59:06;8.80;;;7.53;;
58208;SDS011;44006;52.028;4.696;2022-10-01T02:01:36;10.95;;;5.97;;
58208;SDS011;44006;52.028;4.696;2022-10-01T02:04:04;9.15;;;5.72;;
58208;SDS011;44006;52.028;4.696;2022-10-01T02:06:43;8.88;;;6.45;;
58208;SDS011;44006;52.028;4.696;2022-10-01T02:11:40;8.85;;;6.72;;
58208;SDS011;44006;52.028;4.696;2022-10-01T02:14:25;10.20;;;7.38;;
58208;SDS011;44006;52.028;4.696;2022-10-01T02:17:03;11.18;;;6.80;;
58208;SDS011;44006;52.028;4.696;2022-10-01T02:19:35;8.15;;;6.90;;
58208;SDS011;44006;52.028;4.696;2022-10-01T02:24:44;8.48;;;6.45;;
58208;SDS011;44006;52.028;4.696;2022-10-01T02:27:12;9.68;;;6.00;;
58208;SDS011;44006;52.028;4.696;2022-10-01T02:29:39;7.55;;;6.05;;
58208;SDS011;44006;52.028;4.696;2022-10-01T02:32:05;8.52;;;6.45;;
58208;SDS011;44006;52.028;4.696;2022-10-01T02:34:32;7.25;;;5.80;;
58208;SDS011;44006;52.028;4.696;2022-10-01T02:37:02;7.03;;;5.85;;
58208;SDS011;44006;52.028;4.696;2022-10-01T02:39:29;9.50;;;6.80;;
58208;SDS011;44006;52.028;4.696;2022-10-01T02:45:02;8.13;;;6.13;;
58208;SDS011;44006;52.028;4.696;2022-10-01T02:47:35;9.43;;;7.40;;
58208;SDS011;44006;52.028;4.696;2022-10-01T02:50:07;11.40;;;6.95;;
58208;SDS011;44006;52.028;4.696;2022-10-01T02:52:39;8.95;;;8.05;;
58208;SDS011;44006;52.028;4.696;2022-10-01T02:57:54;13.40;;;7.50;;
58208;SDS011;44006;52.028;4.696;2022-10-01T03:00:25;14.20;;;9.20;;
58208;SDS011;44006;52.028;4.696;2022-10-01T03:02:52;10.60;;;9.40;;
58208;SDS011;44006;52.028;4.696;2022-10-01T03:07:47;13.77;;;10.70;;
58208;SDS011;44006;52.028;4.696;2022-10-01T03:10:12;13.00;;;10.63;;
58208;SDS011;44006;52.028;4.696;2022-10-01T03:12:41;10.57;;;8.98;;
58208;SDS011;44006;52.028;4.696;2022-10-01T03:15:11;10.73;;;9.65;;
58208;SDS011;44006;52.028;4.696;2022-10-01T03:17:38;11.82;;;10.23;;
58208;SDS011;44006;52.028;4.696;2022-10-01T03:20:05;16.25;;;11.98;;
58208;SDS011;44006;52.028;4.696;2022-10-01T03:22:32;14.27;;;11.05;;
58208;SDS011;44006;52.028;4.696;2022-10-01T03:25:00;13.85;;;11.57;;
58208;SDS011;44006;52.028;4.696;2022-10-01T03:27:34;14.25;;;11.10;;
58208;SDS011;44006;52.028;4.696;2022-10-01T03:32:27;13.52;;;10.57;;
58208;SDS011;44006;52.028;4.696;2022-10-01T03:34:52;12.85;;;10.88;;
58208;SDS011;44006;52.028;4.696;2022-10-01T03:37:18;12.60;;;11.30;;
58208;SDS011;44006;52.028;4.696;2022-10-01T03:39:48;15.30;;;11.52;;
58208;SDS011;44006;52.028;4.696;2022-10-01T03:42:13;12.35;;;10.23;;
58208;SDS011;44006;52.028;4.696;2022-10-01T03:44:42;12.05;;;10.60;;
58208;SDS011;44006;52.028;4.696;2022-10-01T03:47:07;11.15;;;10.05;;
58208;SDS011;44006;52.028;4.696;2022-10-01T03:49:36;14.30;;;11.55;;
58208;SDS011;44006;52.028;4.696;2022-10-01T03:52:03;15.95;;;11.40;;
58208;SDS011;44006;52.028;4.696;2022-10-01T03:54:31;13.38;;;10.77;;
58208;SDS011;44006;52.028;4.696;2022-10-01T03:56:57;12.43;;;10.02;;
58208;SDS011;44006;52.028;4.696;2022-10-01T03:59:24;11.55;;;8.90;;
58208;SDS011;44006;52.028;4.696;2022-10-01T04:01:56;12.90;;;10.35;;
58208;SDS011;44006;52.028;4.696;2022-10-01T04:04:22;17.58;;;10.20;;
58208;SDS011;44006;52.028;4.696;2022-10-01T04:06:50;10.95;;;9.13;;
58208;SDS011;44006;52.028;4.696;2022-10-01T04:09:17;11.32;;;9.27;;
58208;SDS011;44006;52.028;4.696;2022-10-01T04:11:44;10.27;;;8.50;;
58208;SDS011;44006;52.028;4.696;2022-10-01T04:14:10;11.93;;;8.95;;
58208;SDS011;44006;52.028;4.696;2022-10-01T04:16:35;9.32;;;7.47;;
58208;SDS011;44006;52.028;4.696;2022-10-01T04:19:02;10.18;;;8.05;;
58208;SDS011;44006;52.028;4.696;2022-10-01T04:24:09;8.70;;;6.95;;
58208;SDS011;44006;52.028;4.696;2022-10-01T04:26:36;12.57;;;7.53;;
58208;SDS011;44006;52.028;4.696;2022-10-01T04:29:06;12.25;;;6.82;;
58208;SDS011;44006;52.028;4.696;2022-10-01T04:31:32;9.70;;;6.55;;
58208;SDS011;44006;52.028;4.696;2022-10-01T04:34:04;10.25;;;6.90;;
58208;SDS011;44006;52.028;4.696;2022-10-01T04:36:30;13.95;;;7.68;;
58208;SDS011;44006;52.028;4.696;2022-10-01T04:41:25;12.10;;;7.68;;
58208;SDS011;44006;52.028;4.696;2022-10-01T04:43:52;10.13;;;7.18;;
58208;SDS011;44006;52.028;4.696;2022-10-01T04:48:47;10.93;;;7.10;;
58208;SDS011;44006;52.028;4.696;2022-10-01T04:51:14;10.13;;;6.53;;
58208;SDS011;44006;52.028;4.696;2022-10-01T04:53:40;11.88;;;6.80;;
58208;SDS011;44006;52.028;4.696;2022-10-01T04:56:05;8.13;;;6.22;;
58208;SDS011;44006;52.028;4.696;2022-10-01T05:01:01;9.07;;;5.65;;
58208;SDS011;44006;52.028;4.696;2022-10-01T05:03:27;11.27;;;6.53;;
58208;SDS011;44006;52.028;4.696;2022-10-01T05:05:53;8.15;;;5.75;;
58208;SDS011;44006;52.028;4.696;2022-10-01T05:08:20;11.07;;;5.80;;
58208;SDS011;44006;52.028;4.696;2022-10-01T05:10:46;9.82;;;5.43;;
58208;SDS011;44006;52.028;4.696;2022-10-01T05:13:12;14.52;;;6.25;;
58208;SDS011;44006;52.028;4.696;2022-10-01T05:15:38;9.77;;;5.15;;
58208;SDS011;44006;52.028;4.696;2022-10-01T05:18:06;9.52;;;6.30;;
58208;SDS011;44006;52.028;4.696;2022-10-01T05:20:33;11.50;;;5.75;;
58208;SDS011;44006;52.028;4.696;2022-10-01T05:25:58;14.50;;;6.82;;
58208;SDS011;44006;52.028;4.696;2022-10-01T05:28:27;9.77;;;6.50;;
58208;SDS011;44006;52.028;4.696;2022-10-01T05:30:54;12.25;;;7.20;;
58208;SDS011;44006;52.028;4.696;2022-10-01T05:33:22;12.93;;;7.68;;
58208;SDS011;44006;52.028;4.696;2022-10-01T05:35:48;12.85;;;6.88;;
58208;SDS011;44006;52.028;4.696;2022-10-01T05:38:14;13.13;;;8.20;;
58208;SDS011;44006;52.028;4.696;2022-10-01T05:40:49;13.30;;;8.15;;
58208;SDS011;44006;52.028;4.696;2022-10-01T05:43:15;10.95;;;7.68;;
58208;SDS011;44006;52.028;4.696;2022-10-01T05:45:43;15.77;;;8.00;;
58208;SDS011;44006;52.028;4.696;2022-10-01T05:48:09;12.95;;;6.72;;
58208;SDS011;44006;52.028;4.696;2022-10-01T05:53:04;18.77;;;8.27;;
58208;SDS011;44006;52.028;4.696;2022-10-01T05:55:32;12.07;;;7.70;;
58208;SDS011;44006;52.028;4.696;2022-10-01T05:58:09;12.50;;;7.13;;
58208;SDS011;44006;52.028;4.696;2022-10-01T06:00:36;10.48;;;6.05;;
58208;SDS011;44006;52.028;4.696;2022-10-01T06:03:02;11.07;;;6.63;;
58208;SDS011;44006;52.028;4.696;2022-10-01T06:05:29;18.15;;;7.40;;
58208;SDS011;44006;52.028;4.696;2022-10-01T06:07:57;9.60;;;6.97;;
58208;SDS011;44006;52.028;4.696;2022-10-01T06:10:24;12.52;;;6.45;;
58208;SDS011;44006;52.028;4.696;2022-10-01T06:12:50;10.93;;;6.55;;
58208;SDS011;44006;52.028;4.696;2022-10-01T06:15:16;10.15;;;6.43;;
58208;SDS011;44006;52.028;4.696;2022-10-01T06:17:43;12.45;;;6.47;;
58208;SDS011;44006;52.028;4.696;2022-10-01T06:20:16;8.95;;;6.00;;
58208;SDS011;44006;52.028;4.696;2022-10-01T06:22:57;9.63;;;6.53;;
58208;SDS011;44006;52.028;4.696;2022-10-01T06:25:30;11.80;;;6.30;;
58208;SDS011;44006;52.028;4.696;2022-10-01T06:28:06;13.10;;;5.63;;
58208;SDS011;44006;52.028;4.696;2022-10-01T06:33:08;13.75;;;6.68;;
58208;SDS011;44006;52.028;4.696;2022-10-01T06:35:35;13.40;;;6.40;;
58208;SDS011;44006;52.028;4.696;2022-10-01T06:38:13;11.18;;;5.53;;
58208;SDS011;44006;52.028;4.696;2022-10-01T06:46:31;16.25;;;6.85;;
58208;SDS011;44006;52.028;4.696;2022-10-01T06:48:57;16.48;;;8.35;;
58208;SDS011;44006;52.028;4.696;2022-10-01T06:51:22;18.48;;;7.15;;
58208;SDS011;44006;52.028;4.696;2022-10-01T06:56:38;13.77;;;6.03;;
58208;SDS011;44006;52.028;4.696;2022-10-01T06:59:10;9.80;;;5.00;;
58208;SDS011;44006;52.028;4.696;2022-10-01T07:01:35;10.80;;;5.00;;
58208;SDS011;44006;52.028;4.696;2022-10-01T07:04:04;10.13;;;5.57;;
58208;SDS011;44006;52.028;4.696;2022-10-01T07:06:31;10.57;;;5.55;;
58208;SDS011;44006;52.028;4.696;2022-10-01T07:11:25;12.68;;;5.88;;
58208;SDS011;44006;52.028;4.696;2022-10-01T07:16:26;16.40;;;6.25;;
58208;SDS011;44006;52.028;4.696;2022-10-01T07:18:51;8.40;;;5.60;;
58208;SDS011;44006;52.028;4.696;2022-10-01T07:21:26;13.25;;;5.40;;
58208;SDS011;44006;52.028;4.696;2022-10-01T07:26:48;13.73;;;5.25;;
58208;SDS011;44006;52.028;4.696;2022-10-01T07:29:16;11.60;;;4.70;;
58208;SDS011;44006;52.028;4.696;2022-10-01T07:31:44;13.77;;;4.97;;
58208;SDS011;44006;52.028;4.696;2022-10-01T07:34:12;10.63;;;4.32;;
58208;SDS011;44006;52.028;4.696;2022-10-01T07:36:53;14.77;;;5.55;;
58208;SDS011;44006;52.028;4.696;2022-10-01T07:39:19;13.63;;;5.60;;
58208;SDS011;44006;52.028;4.696;2022-10-01T07:41:54;13.85;;;5.75;;
58208;SDS011;44006;52.028;4.696;2022-10-01T07:46:57;13.80;;;3.95;;
58208;SDS011;44006;52.028;4.696;2022-10-01T07:49:25;16.55;;;4.03;;
58208;SDS011;44006;52.028;4.696;2022-10-01T07:51:53;13.88;;;3.03;;
58208;SDS011;44006;52.028;4.696;2022-10-01T07:54:20;16.13;;;3.80;;
58208;SDS011;44006;52.028;4.696;2022-10-01T07:56:47;21.75;;;4.50;;
58208;SDS011;44006;52.028;4.696;2022-10-01T07:59:13;12.93;;;3.50;;
58208;SDS011;44006;52.028;4.696;2022-10-01T08:01:42;16.15;;;4.60;;
58208;SDS011;44006;52.028;4.696;2022-10-01T08:04:08;16.08;;;4.22;;
58208;SDS011;44006;52.028;4.696;2022-10-01T08:06:53;20.52;;;4.53;;
58208;SDS011;44006;52.028;4.696;2022-10-01T08:09:19;25.20;;;4.35;;
58208;SDS011;44006;52.028;4.696;2022-10-01T08:11:44;21.58;;;3.95;;
58208;SDS011;44006;52.028;4.696;2022-10-01T08:14:14;22.33;;;3.72;;
58208;SDS011;44006;52.028;4.696;2022-10-01T08:16:53;16.65;;;3.00;;
58208;SDS011;44006;52.028;4.696;2022-10-01T08:19:21;20.27;;;2.85;;
58208;SDS011;44006;52.028;4.696;2022-10-01T08:21:47;20.10;;;3.50;;
58208;SDS011;44006;52.028;4.696;2022-10-01T08:24:19;25.52;;;3.53;;
58208;SDS011;44006;52.028;4.696;2022-10-01T08:26:53;17.95;;;2.65;;
58208;SDS011;44006;52.028;4.696;2022-10-01T08:29:21;15.57;;;3.22;;
58208;SDS011;44006;52.028;4.696;2022-10-01T08:34:16;22.63;;;2.88;;
58208;SDS011;44006;52.028;4.696;2022-10-01T08:36:44;16.33;;;2.72;;
58208;SDS011;44006;52.028;4.696;2022-10-01T08:39:11;18.15;;;2.63;;
58208;SDS011;44006;52.028;4.696;2022-10-01T08:44:08;22.70;;;3.47;;
58208;SDS011;44006;52.028;4.696;2022-10-01T08:46:38;17.83;;;2.65;;
58208;SDS011;44006;52.028;4.696;2022-10-01T08:52:02;20.13;;;2.83;;
58208;SDS011;44006;52.028;4.696;2022-10-01T08:54:30;22.98;;;3.47;;
58208;SDS011;44006;52.028;4.696;2022-10-01T08:56:58;18.95;;;3.25;;
58208;SDS011;44006;52.028;4.696;2022-10-01T09:04:38;22.52;;;3.45;;
58208;SDS011;44006;52.028;4.696;2022-10-01T09:09:51;18.98;;;2.97;;
58208;SDS011;44006;52.028;4.696;2022-10-01T09:18:21;14.40;;;2.55;;
58208;SDS011;44006;52.028;4.696;2022-10-01T09:20:53;12.73;;;2.67;;
58208;SDS011;44006;52.028;4.696;2022-10-01T09:23:29;21.52;;;3.60;;
58208;SDS011;44006;52.028;4.696;2022-10-01T09:26:00;17.38;;;2.45;;
58208;SDS011;44006;52.028;4.696;2022-10-01T09:33:35;18.15;;;2.00;;
58208;SDS011;44006;52.028;4.696;2022-10-01T09:38:35;19.38;;;3.10;;
58208;SDS011;44006;52.028;4.696;2022-10-01T09:41:02;14.55;;;2.63;;
58208;SDS011;44006;52.028;4.696;2022-10-01T09:43:29;19.42;;;2.83;;
58208;SDS011;44006;52.028;4.696;2022-10-01T09:45:55;18.98;;;3.13;;
58208;SDS011;44006;52.028;4.696;2022-10-01T09:51:24;18.42;;;2.65;;
58208;SDS011;44006;52.028;4.696;2022-10-01T09:56:20;17.15;;;2.63;;
58208;SDS011;44006;52.028;4.696;2022-10-01T09:58:51;19.58;;;2.25;;
58208;SDS011;44006;52.028;4.696;2022-10-01T10:01:23;11.60;;;2.22;;
58208;SDS011;44006;52.028;4.696;2022-10-01T10:03:54;17.58;;;2.63;;
58208;SDS011;44006;52.028;4.696;2022-10-01T10:06:27;14.77;;;2.40;;
58208;SDS011;44006;52.028;4.696;2022-10-01T10:08:57;16.10;;;2.72;;
58208;SDS011;44006;52.028;4.696;2022-10-01T10:11:29;15.45;;;2.10;;
58208;SDS011;44006;52.028;4.696;2022-10-01T10:13:59;13.48;;;2.33;;
58208;SDS011;44006;52.028;4.696;2022-10-01T10:18:51;16.73;;;2.92;;
58208;SDS011;44006;52.028;4.696;2022-10-01T10:21:32;13.50;;;2.28;;
58208;SDS011;44006;52.028;4.696;2022-10-01T10:24:00;13.82;;;2.33;;
58208;SDS011;44006;52.028;4.696;2022-10-01T10:26:33;17.42;;;2.85;;
58208;SDS011;44006;52.028;4.696;2022-10-01T10:29:00;9.95;;;2.55;;
58208;SDS011;44006;52.028;4.696;2022-10-01T10:34:45;16.10;;;3.03;;
58208;SDS011;44006;52.028;4.696;2022-10-01T10:36:55;11.50;;;1.95;;
58208;SDS011;44006;52.028;4.696;2022-10-01T10:39:34;19.17;;;4.07;;
58208;SDS011;44006;52.028;4.696;2022-10-01T10:42:02;14.52;;;2.35;;
58208;SDS011;44006;52.028;4.696;2022-10-01T10:44:30;12.57;;;2.13;;
58208;SDS011;44006;52.028;4.696;2022-10-01T10:47:00;15.82;;;2.53;;
58208;SDS011;44006;52.028;4.696;2022-10-01T10:49:36;10.52;;;2.13;;
58208;SDS011;44006;52.028;4.696;2022-10-01T10:52:18;12.18;;;2.10;;
58208;SDS011;44006;52.028;4.696;2022-10-01T10:54:47;10.30;;;2.38;;
58208;SDS011;44006;52.028;4.696;2022-10-01T10:57:22;12.60;;;2.22;;
58208;SDS011;44006;52.028;4.696;2022-10-01T10:59:58;17.27;;;2.38;;
58208;SDS011;44006;52.028;4.696;2022-10-01T11:02:24;16.58;;;2.50;;
58208;SDS011;44006;52.028;4.696;2022-10-01T11:04:50;18.63;;;2.75;;
58208;SDS011;44006;52.028;4.696;2022-10-01T11:07:21;14.13;;;2.10;;
58208;SDS011;44006;52.028;4.696;2022-10-01T11:12:33;19.13;;;3.10;;
58208;SDS011;44006;52.028;4.696;2022-10-01T11:17:51;21.77;;;2.78;;
58208;SDS011;44006;52.028;4.696;2022-10-01T11:20:43;13.48;;;2.22;;
58208;SDS011;44006;52.028;4.696;2022-10-01T11:28:53;16.45;;;2.55;;
58208;SDS011;44006;52.028;4.696;2022-10-01T11:31:28;15.93;;;2.95;;
58208;SDS011;44006;52.028;4.696;2022-10-01T11:36:30;15.23;;;3.45;;
58208;SDS011;44006;52.028;4.696;2022-10-01T11:38:58;13.10;;;2.58;;
58208;SDS011;44006;52.028;4.696;2022-10-01T11:41:42;17.08;;;2.10;;
58208;SDS011;44006;52.028;4.696;2022-10-01T11:46:44;11.73;;;2.30;;
58208;SDS011;44006;52.028;4.696;2022-10-01T11:52:06;17.30;;;2.72;;
58208;SDS011;44006;52.028;4.696;2022-10-01T11:54:35;14.88;;;2.10;;
58208;SDS011;44006;52.028;4.696;2022-10-01T11:57:02;14.80;;;2.33;;
58208;SDS011;44006;52.028;4.696;2022-10-01T12:00:20;14.00;;;2.35;;
58208;SDS011;44006;52.028;4.696;2022-10-01T12:02:47;11.15;;;2.50;;
58208;SDS011;44006;52.028;4.696;2022-10-01T12:05:19;12.98;;;2.58;;
58208;SDS011;44006;52.028;4.696;2022-10-01T12:13:01;18.70;;;2.70;;
58208;SDS011;44006;52.028;4.696;2022-10-01T12:18:25;13.85;;;2.05;;
58208;SDS011;44006;52.028;4.696;2022-10-01T12:20:54;17.65;;;2.50;;
58208;SDS011;44006;52.028;4.696;2022-10-01T12:29:06;13.82;;;2.90;;
58208;SDS011;44006;52.028;4.696;2022-10-01T12:31:42;16.55;;;3.00;;
58208;SDS011;44006;52.028;4.696;2022-10-01T12:34:21;13.32;;;2.15;;
58208;SDS011;44006;52.028;4.696;2022-10-01T12:37:08;12.93;;;2.25;;
58208;SDS011;44006;52.028;4.696;2022-10-01T12:39:42;15.23;;;1.83;;
58208;SDS011;44006;52.028;4.696;2022-10-01T12:44:46;16.27;;;2.20;;
58208;SDS011;44006;52.028;4.696;2022-10-01T12:49:47;14.90;;;2.53;;
58208;SDS011;44006;52.028;4.696;2022-10-01T12:52:18;16.52;;;2.33;;
58208;SDS011;44006;52.028;4.696;2022-10-01T12:55:12;17.05;;;2.10;;
58208;SDS011;44006;52.028;4.696;2022-10-01T13:00:12;14.98;;;2.10;;
58208;SDS011;44006;52.028;4.696;2022-10-01T13:02:44;14.13;;;1.90;;
58208;SDS011;44006;52.028;4.696;2022-10-01T13:05:26;11.32;;;2.58;;
58208;SDS011;44006;52.028;4.696;2022-10-01T13:08:01;12.75;;;2.30;;
58208;SDS011;44006;52.028;4.696;2022-10-01T13:13:15;11.35;;;2.00;;
58208;SDS011;44006;52.028;4.696;2022-10-01T13:15:43;15.38;;;2.40;;
58208;SDS011;44006;52.028;4.696;2022-10-01T13:20:55;20.90;;;2.33;;
58208;SDS011;44006;52.028;4.696;2022-10-01T13:31:17;17.40;;;2.17;;
58208;SDS011;44006;52.028;4.696;2022-10-01T13:33:52;12.70;;;1.75;;
58208;SDS011;44006;52.028;4.696;2022-10-01T13:36:26;13.45;;;2.38;;
58208;SDS011;44006;52.028;4.696;2022-10-01T13:38:52;12.02;;;2.58;;
58208;SDS011;44006;52.028;4.696;2022-10-01T13:41:19;13.07;;;2.25;;
58208;SDS011;44006;52.028;4.696;2022-10-01T13:43:46;14.85;;;3.03;;
58208;SDS011;44006;52.028;4.696;2022-10-01T13:46:12;14.15;;;2.63;;
58208;SDS011;44006;52.028;4.696;2022-10-01T13:48:43;11.40;;;2.30;;
58208;SDS011;44006;52.028;4.696;2022-10-01T13:51:12;11.77;;;2.25;;
58208;SDS011;44006;52.028;4.696;2022-10-01T13:56:05;14.13;;;2.40;;
58208;SDS011;44006;52.028;4.696;2022-10-01T13:58:36;11.55;;;2.28;;
58208;SDS011;44006;52.028;4.696;2022-10-01T14:01:04;11.63;;;2.20;;
58208;SDS011;44006;52.028;4.696;2022-10-01T14:06:02;9.55;;;1.90;;
58208;SDS011;44006;52.028;4.696;2022-10-01T14:08:43;13.30;;;2.42;;
58208;SDS011;44006;52.028;4.696;2022-10-01T14:11:46;13.13;;;3.47;;
58208;SDS011;44006;52.028;4.696;2022-10-01T14:17:13;12.05;;;2.33;;
58208;SDS011;44006;52.028;4.696;2022-10-01T14:19:46;17.02;;;2.88;;
58208;SDS011;44006;52.028;4.696;2022-10-01T14:34:37;17.20;;;2.15;;
58208;SDS011;44006;52.028;4.696;2022-10-01T14:37:06;15.30;;;2.53;;
58208;SDS011;44006;52.028;4.696;2022-10-01T14:39:32;15.07;;;2.88;;
58208;SDS011;44006;52.028;4.696;2022-10-01T14:42:05;11.88;;;2.47;;
58208;SDS011;44006;52.028;4.696;2022-10-01T14:44:38;12.15;;;2.28;;
58208;SDS011;44006;52.028;4.696;2022-10-01T14:47:11;11.40;;;1.92;;
58208;SDS011;44006;52.028;4.696;2022-10-01T14:49:37;15.32;;;2.55;;
58208;SDS011;44006;52.028;4.696;2022-10-01T14:52:03;16.40;;;3.08;;
58208;SDS011;44006;52.028;4.696;2022-10-01T14:55:31;14.18;;;2.60;;
58208;SDS011;44006;52.028;4.696;2022-10-01T15:00:00;14.70;;;2.55;;
58208;SDS011;44006;52.028;4.696;2022-10-01T15:02:28;19.35;;;2.50;;
58208;SDS011;44006;52.028;4.696;2022-10-01T15:04:54;9.05;;;2.38;;
58208;SDS011;44006;52.028;4.696;2022-10-01T15:07:21;15.82;;;2.25;;
58208;SDS011;44006;52.028;4.696;2022-10-01T15:09:47;17.20;;;3.30;;
58208;SDS011;44006;52.028;4.696;2022-10-01T15:12:18;12.18;;;1.98;;
58208;SDS011;44006;52.028;4.696;2022-10-01T15:14:44;11.80;;;2.20;;
58208;SDS011;44006;52.028;4.696;2022-10-01T15:17:15;15.10;;;2.13;;
58208;SDS011;44006;52.028;4.696;2022-10-01T15:19:42;15.73;;;2.60;;
58208;SDS011;44006;52.028;4.696;2022-10-01T15:22:10;14.73;;;2.28;;
58208;SDS011;44006;52.028;4.696;2022-10-01T15:27:16;11.43;;;1.77;;
58208;SDS011;44006;52.028;4.696;2022-10-01T15:32:32;10.57;;;2.47;;
58208;SDS011;44006;52.028;4.696;2022-10-01T15:34:58;12.85;;;1.95;;
58208;SDS011;44006;52.028;4.696;2022-10-01T15:37:30;11.95;;;2.33;;
58208;SDS011;44006;52.028;4.696;2022-10-01T15:39:56;13.80;;;2.22;;
58208;SDS011;44006;52.028;4.696;2022-10-01T15:44:47;14.55;;;2.45;;
58208;SDS011;44006;52.028;4.696;2022-10-01T15:47:23;13.50;;;2.35;;
58208;SDS011;44006;52.028;4.696;2022-10-01T15:50:02;12.63;;;2.13;;
58208;SDS011;44006;52.028;4.696;2022-10-01T15:52:29;11.80;;;1.77;;
58208;SDS011;44006;52.028;4.696;2022-10-01T15:55:15;16.25;;;2.67;;
58208;SDS011;44006;52.028;4.696;2022-10-01T15:57:42;10.90;;;1.95;;
58208;SDS011;44006;52.028;4.696;2022-10-01T16:00:20;12.75;;;2.30;;
58208;SDS011;44006;52.028;4.696;2022-10-01T16:02:47;11.40;;;2.22;;
58208;SDS011;44006;52.028;4.696;2022-10-01T16:05:14;16.77;;;2.55;;
58208;SDS011;44006;52.028;4.696;2022-10-01T16:07:41;9.02;;;2.42;;
58208;SDS011;44006;52.028;4.696;2022-10-01T16:12:56;11.10;;;2.75;;
58208;SDS011;44006;52.028;4.696;2022-10-01T16:15:29;14.82;;;2.45;;
58208;SDS011;44006;52.028;4.696;2022-10-01T16:18:00;9.02;;;2.08;;
58208;SDS011;44006;52.028;4.696;2022-10-01T16:25:43;18.38;;;2.72;;
58208;SDS011;44006;52.028;4.696;2022-10-01T16:28:21;15.20;;;2.65;;
58208;SDS011;44006;52.028;4.696;2022-10-01T16:30:49;11.80;;;2.75;;
58208;SDS011;44006;52.028;4.696;2022-10-01T16:33:16;13.93;;;2.05;;
58208;SDS011;44006;52.028;4.696;2022-10-01T16:35:41;14.88;;;2.28;;
58208;SDS011;44006;52.028;4.696;2022-10-01T16:40:55;17.45;;;2.47;;
58208;SDS011;44006;52.028;4.696;2022-10-01T16:43:20;14.15;;;2.65;;
58208;SDS011;44006;52.028;4.696;2022-10-01T16:45:49;18.23;;;3.10;;
58208;SDS011;44006;52.028;4.696;2022-10-01T16:48:15;10.40;;;2.63;;
58208;SDS011;44006;52.028;4.696;2022-10-01T16:50:41;15.60;;;3.08;;
58208;SDS011;44006;52.028;4.696;2022-10-01T16:53:11;20.98;;;3.47;;
58208;SDS011;44006;52.028;4.696;2022-10-01T16:55:36;13.23;;;2.67;;
58208;SDS011;44006;52.028;4.696;2022-10-01T16:58:02;9.65;;;2.45;;
58208;SDS011;44006;52.028;4.696;2022-10-01T17:00:28;16.13;;;2.50;;
58208;SDS011;44006;52.028;4.696;2022-10-01T17:02:54;13.55;;;3.10;;
58208;SDS011;44006;52.028;4.696;2022-10-01T17:05:23;17.35;;;3.30;;
58208;SDS011;44006;52.028;4.696;2022-10-01T17:07:54;16.90;;;3.20;;
58208;SDS011;44006;52.028;4.696;2022-10-01T17:13:00;14.43;;;2.72;;
58208;SDS011;44006;52.028;4.696;2022-10-01T17:15:27;12.93;;;2.58;;
58208;SDS011;44006;52.028;4.696;2022-10-01T17:17:53;12.02;;;2.53;;
58208;SDS011;44006;52.028;4.696;2022-10-01T17:20:19;9.93;;;2.38;;
58208;SDS011;44006;52.028;4.696;2022-10-01T17:22:47;11.85;;;2.75;;
58208;SDS011;44006;52.028;4.696;2022-10-01T17:25:23;12.27;;;2.33;;
58208;SDS011;44006;52.028;4.696;2022-10-01T17:27:49;10.82;;;2.30;;
58208;SDS011;44006;52.028;4.696;2022-10-01T17:30:15;11.52;;;2.70;;
58208;SDS011;44006;52.028;4.696;2022-10-01T17:32:40;11.25;;;2.60;;
58208;SDS011;44006;52.028;4.696;2022-10-01T17:35:10;12.25;;;2.67;;
58208;SDS011;44006;52.028;4.696;2022-10-01T17:37:40;13.45;;;2.75;;
58208;SDS011;44006;52.028;4.696;2022-10-01T17:40:05;9.73;;;2.40;;
58208;SDS011;44006;52.028;4.696;2022-10-01T17:42:31;11.23;;;2.42;;
58208;SDS011;44006;52.028;4.696;2022-10-01T17:45:00;16.05;;;2.63;;
58208;SDS011;44006;52.028;4.696;2022-10-01T17:47:25;12.02;;;2.25;;
58208;SDS011;44006;52.028;4.696;2022-10-01T17:49:51;12.55;;;2.47;;
58208;SDS011;44006;52.028;4.696;2022-10-01T17:52:16;14.95;;;2.97;;
58208;SDS011;44006;52.028;4.696;2022-10-01T17:54:46;16.75;;;2.72;;
58208;SDS011;44006;52.028;4.696;2022-10-01T17:57:12;12.40;;;2.72;;
58208;SDS011;44006;52.028;4.696;2022-10-01T17:59:38;11.82;;;2.35;;
58208;SDS011;44006;52.028;4.696;2022-10-01T18:02:05;13.27;;;2.67;;
58208;SDS011;44006;52.028;4.696;2022-10-01T18:04:33;10.10;;;1.88;;
58208;SDS011;44006;52.028;4.696;2022-10-01T18:06:58;16.38;;;2.72;;
58208;SDS011;44006;52.028;4.696;2022-10-01T18:09:24;11.15;;;2.35;;